createdAt,value
2022-10-14T00:01:41.375Z,0
2022-10-14T00:20:56.238Z,0
2022-10-14T00:30:33.390Z,0
2022-10-14T00:40:10.384Z,0
2022-10-14T00:49:47.703Z,0
2022-10-14T00:59:24.910Z,0
2022-10-14T01:09:02.356Z,0
2022-10-14T01:18:39.634Z,0
2022-10-14T01:28:16.855Z,0
2022-10-14T01:37:54.075Z,0
2022-10-14T01:47:31.684Z,0
2022-10-14T01:57:08.800Z,0
2022-10-14T02:06:46.051Z,0
2022-10-14T02:26:00.544Z,0
2022-10-14T02:35:37.625Z,0
2022-10-14T02:45:14.786Z,0
2022-10-14T02:54:51.683Z,0
2022-10-14T03:04:28.805Z,0
2022-10-14T03:14:06.476Z,0
2022-10-14T03:23:43.788Z,0
2022-10-14T03:52:35.821Z,0
2022-10-14T04:02:12.880Z,0
2022-10-14T04:11:50.199Z,0
2022-10-14T04:21:27.629Z,0
2022-10-14T04:31:04.828Z,0
2022-10-14T04:50:19.190Z,0
2022-10-14T04:59:56.604Z,0
2022-10-14T05:09:33.629Z,0.83
2022-10-14T05:19:11.048Z,1.67
2022-10-14T05:28:48.357Z,8.33
2022-10-14T05:38:25.552Z,15.83
2022-10-14T05:48:02.764Z,29.17
2022-10-14T05:57:40.140Z,68.33
2022-10-14T06:07:16.694Z,90.83
2022-10-14T06:16:55.903Z,183.33
2022-10-14T06:26:32.262Z,213.33
2022-10-14T06:45:46.971Z,567.5
2022-10-14T06:55:24.396Z,426.67
2022-10-14T07:05:01.935Z,609.17
2022-10-14T07:14:39.312Z,785.83
2022-10-14T07:24:16.851Z,1010.83
2022-10-14T07:33:54.877Z,1280
2022-10-14T07:53:10.805Z,1642.5
2022-10-14T08:02:49.361Z,2092.5
2022-10-14T08:12:27.672Z,2069.17
2022-10-14T08:22:05.612Z,2258.33
2022-10-14T08:31:43.772Z,2825.83
2022-10-14T08:41:22.208Z,3210.83
2022-10-14T08:51:00.681Z,3970.83
2022-10-14T09:10:17.526Z,3720.83
2022-10-14T09:19:56.622Z,4320.83
2022-10-14T09:29:34.815Z,5654.17
2022-10-14T09:39:13.706Z,5965.83
2022-10-14T09:48:51.269Z,4933.33
2022-10-14T09:58:28.790Z,5240
2022-10-14T10:08:07.556Z,5605.83
2022-10-14T10:27:21.827Z,4830.83
2022-10-14T10:37:02.674Z,8135
2022-10-14T10:56:29.530Z,2572.5
2022-10-14T11:06:03.475Z,4715
2022-10-14T11:15:42.382Z,13797.5
2022-10-14T11:35:05.565Z,9250.83
2022-10-14T11:44:40.776Z,5435
2022-10-14T11:54:15.345Z,8589.17
2022-10-14T12:04:01.364Z,11973.33
2022-10-14T12:13:42.121Z,9697.5
2022-10-14T12:23:13.040Z,2698.33
2022-10-14T12:32:45.327Z,1125.83
2022-10-14T12:42:19.693Z,999.17
2022-10-14T12:51:55.802Z,934.17
2022-10-14T13:01:33.733Z,595.83
2022-10-14T13:11:08.373Z,867.5
2022-10-14T13:20:46.101Z,1607.5
2022-10-14T13:30:28.248Z,17465
2022-10-14T13:40:00.642Z,2714.17
2022-10-14T13:49:37.769Z,3183.33
2022-10-14T13:59:21.747Z,2756.67
2022-10-14T14:08:51.875Z,5350
2022-10-14T14:18:55.938Z,7885
2022-10-14T14:28:14.294Z,2303.33
2022-10-14T14:47:22.383Z,915.83
2022-10-14T14:56:58.716Z,1190
2022-10-14T15:06:36.045Z,1455
2022-10-14T15:16:12.599Z,1036.67
2022-10-14T15:25:48.729Z,437.5
2022-10-14T15:35:24.896Z,243.33
2022-10-14T15:45:01.490Z,287.5
2022-10-14T15:54:37.721Z,260.83
2022-10-14T16:04:14.178Z,209.17
2022-10-14T16:23:29.523Z,31.67
2022-10-14T16:42:40.818Z,3.33
2022-10-14T16:52:17.486Z,0.83
2022-10-14T17:01:54.607Z,0
2022-10-14T17:11:31.946Z,0
2022-10-14T17:21:08.815Z,0
2022-10-14T17:30:45.245Z,0
2022-10-14T17:40:22.046Z,0
2022-10-14T18:09:12.846Z,0
2022-10-14T18:28:27.109Z,0
2022-10-14T18:38:04.234Z,0
2022-10-14T18:47:40.929Z,0
2022-10-14T18:57:17.893Z,0
2022-10-14T19:06:54.850Z,0
2022-10-14T19:16:31.691Z,0
2022-10-14T19:26:09.200Z,0
2022-10-14T19:35:46.479Z,0
2022-10-14T19:45:23.666Z,0
2022-10-14T19:54:59.779Z,0
2022-10-14T20:04:36.283Z,0
2022-10-14T20:14:13.447Z,0
2022-10-14T20:23:50.227Z,0
2022-10-14T20:33:27.457Z,0
2022-10-14T20:43:04.569Z,0
2022-10-14T20:52:42.018Z,0
2022-10-14T21:02:17.974Z,0
2022-10-14T21:11:55.292Z,0
2022-10-14T21:21:32.359Z,0
2022-10-14T21:31:09.617Z,0
2022-10-14T21:40:46.946Z,0
2022-10-14T21:50:24.157Z,0
2022-10-14T22:00:00.714Z,0
2022-10-14T22:09:37.875Z,0
2022-10-14T22:28:51.969Z,0
2022-10-14T22:38:29.125Z,0
2022-10-14T22:48:06.636Z,0
2022-10-14T22:57:44.035Z,0
2022-10-14T23:16:58.851Z,0
2022-10-14T23:26:36.166Z,0
2022-10-14T23:36:13.427Z,0
2022-10-14T23:55:27.679Z,0
